Time;durP1;ratioP1;P1;durP2;ratioP2;P2;SDS_P1;SDS_P2;PMS_P1;PMS_P2;Temp;Humidity;BMP_temperature;BMP_pressure;BME280_temperature;BME280_humidity;BME280_pressure;Samples;Min_cycle;Max_cycle;Signal;HPM_P1;HPM_P2
2022/03/07 00:00:50;;;;;;;3.90;1.60;;;;;;;15.51;49.99;102150.63;5036608;28;20449;-34
2022/03/07 00:03:16;;;;;;;3.47;1.42;;;;;;;15.52;49.76;102152.28;5035890;28;20489;-37
2022/03/07 00:05:42;;;;;;;4.15;1.92;;;;;;;15.50;49.78;102154.34;5054568;28;20080;-32
2022/03/07 00:08:08;;;;;;;1.77;1.05;;;;;;;15.50;50.12;102151.63;5036061;28;20025;-36
2022/03/07 00:10:34;;;;;;;2.15;1.40;;;;;;;15.47;50.18;102143.88;5054448;28;20033;-32
2022/03/07 00:13:00;;;;;;;4.55;1.67;;;;;;;15.52;49.97;102151.47;5054116;28;20040;-35
2022/03/07 00:15:26;;;;;;;6.10;1.48;;;;;;;15.63;50.09;102153.72;5020607;28;20078;-34
2022/03/07 00:17:51;;;;;;;2.78;1.45;;;;;;;15.69;49.83;102161.09;5054529;28;20028;-35
2022/03/07 00:20:17;;;;;;;1.83;1.08;;;;;;;15.76;50.01;102150.38;5036364;28;20029;-38
2022/03/07 00:22:43;;;;;;;1.70;1.40;;;;;;;15.82;49.80;102155.06;5054138;28;20102;-36
2022/03/07 00:25:09;;;;;;;1.52;1.27;;;;;;;15.86;49.90;102153.66;5054228;28;20037;-32
2022/03/07 00:27:35;;;;;;;4.32;1.88;;;;;;;15.83;49.74;102137.78;5054334;28;20095;-34
2022/03/07 00:30:02;;;;;;;4.00;1.70;;;;;;;15.89;49.77;102153.28;5054014;28;20083;-34
2022/03/07 00:32:28;;;;;;;3.65;1.80;;;;;;;15.84;49.46;102143.03;5053839;28;20036;-32
2022/03/07 00:34:54;;;;;;;3.88;1.90;;;;;;;15.82;49.62;102136.94;5053902;28;20458;-34
2022/03/07 00:37:20;;;;;;;3.97;1.27;;;;;;;15.85;49.62;102147.41;5036496;28;20079;-33
2022/03/07 00:39:46;;;;;;;6.70;1.60;;;;;;;15.75;49.46;102140.56;5036065;28;20420;-32
2022/03/07 00:42:12;;;;;;;3.45;1.77;;;;;;;15.80;49.49;102148.97;5054039;28;20123;-37
2022/03/07 00:44:38;;;;;;;4.45;1.50;;;;;;;15.76;49.37;102153.94;5053653;28;20033;-34
2022/03/07 00:47:04;;;;;;;5.07;1.73;;;;;;;15.70;49.49;102140.28;5053494;28;20500;-32
2022/03/07 00:49:30;;;;;;;3.65;1.63;;;;;;;15.70;49.42;102140.28;5053688;28;20029;-34
2022/03/07 00:51:57;;;;;;;3.72;1.65;;;;;;;15.70;49.38;102148.41;5053309;28;20052;-36
2022/03/07 00:54:23;;;;;;;5.05;1.67;;;;;;;15.65;49.27;102147.06;5035872;28;20068;-32
2022/03/07 00:56:48;;;;;;;4.20;1.40;;;;;;;15.63;49.59;102143.72;5035730;28;20159;-33
2022/03/07 00:59:14;;;;;;;3.88;1.42;;;;;;;15.60;49.53;102133.28;5053958;28;20044;-34
2022/03/07 01:01:40;;;;;;;2.05;1.33;;;;;;;15.57;49.42;102133.63;5053745;28;20041;-36
2022/03/07 01:04:06;;;;;;;4.05;1.50;;;;;;;15.56;49.40;102141.94;5053593;28;20453;-33
2022/03/07 01:06:32;;;;;;;2.83;1.20;;;;;;;15.54;49.39;102144.81;5035573;28;20052;-31
2022/03/07 01:08:57;;;;;;;3.10;1.30;;;;;;;15.51;49.35;102138.94;5053662;28;20040;-35
2022/03/07 01:11:23;;;;;;;2.47;1.20;;;;;;;15.45;48.03;102141.38;5035981;28;20040;-33
2022/03/07 01:13:49;;;;;;;2.83;1.30;;;;;;;15.34;46.70;102139.13;5053843;28;20029;-33
2022/03/07 01:16:15;;;;;;;6.20;1.58;;;;;;;15.33;46.62;102147.44;5039408;28;20032;-36
2022/03/07 01:18:40;;;;;;;5.40;1.60;;;;;;;15.27;46.80;102151.72;5057466;28;20028;-34
2022/03/07 01:21:06;;;;;;;2.72;1.40;;;;;;;15.21;46.71;102137.03;5057652;28;20078;-33
2022/03/07 01:23:32;;;;;;;5.35;1.30;;;;;;;15.15;46.76;102137.75;5057598;28;20059;-35
2022/03/07 01:25:58;;;;;;;6.13;1.30;;;;;;;15.10;46.68;102137.50;5057289;28;20075;-33
2022/03/07 01:28:24;;;;;;;4.68;1.83;;;;;;;15.08;46.55;102134.09;5023332;28;20025;-32
2022/03/07 01:30:50;;;;;;;4.28;1.30;;;;;;;15.03;46.84;102128.41;5039184;28;20492;-34
2022/03/07 01:33:15;;;;;;;3.17;1.60;;;;;;;14.99;47.03;102129.78;5057466;28;20025;-36
2022/03/07 01:35:41;;;;;;;2.47;1.23;;;;;;;14.95;46.61;102126.63;5023248;28;20036;-34
2022/03/07 01:38:07;;;;;;;2.35;1.05;;;;;;;14.94;46.80;102132.22;5039352;28;20030;-35
2022/03/07 01:40:33;;;;;;;3.42;1.50;;;;;;;14.90;46.82;102121.72;5057674;28;20075;-36
2022/03/07 01:42:59;;;;;;;4.22;1.38;;;;;;;14.87;46.77;102123.97;5039628;28;20477;-35
2022/03/07 01:45:25;;;;;;;5.90;1.40;;;;;;;14.84;46.43;102117.06;5039482;28;20029;-34
2022/03/07 01:47:51;;;;;;;6.28;1.58;;;;;;;14.75;47.07;102111.91;5057021;28;20496;-39
2022/03/07 01:50:19;;;;;;;3.72;1.13;;;;;;;14.76;46.80;102105.47;5058611;28;20040;-36
2022/03/07 01:52:50;;;;;;;5.38;1.50;;;;;;;14.74;46.88;102102.94;5076234;28;20101;-33
2022/03/07 01:55:16;;;;;;;5.13;1.42;;;;;;;14.71;46.82;102096.03;5077174;28;20469;-34
2022/03/07 01:57:44;;;;;;;4.20;1.48;;;;;;;14.69;46.82;102097.22;5077523;28;20028;-33
2022/03/07 02:00:14;;;;;;;4.75;1.52;;;;;;;14.58;47.09;102076.00;5059509;28;20520;-33
2022/03/07 02:02:41;;;;;;;3.17;1.10;;;;;;;14.63;46.83;102085.25;5077182;28;20450;-35
2022/03/07 02:05:10;;;;;;;3.75;1.42;;;;;;;14.62;46.77;102085.47;5075413;28;20158;-37
2022/03/07 02:07:37;;;;;;;5.03;1.50;;;;;;;14.53;46.86;102071.13;5076887;28;20074;-37
2022/03/07 02:10:04;;;;;;;3.95;1.40;;;;;;;14.56;46.93;102070.78;5076607;28;20047;-33
2022/03/07 02:12:30;;;;;;;5.22;1.35;;;;;;;14.51;46.86;102065.06;5075465;28;20028;-35
2022/03/07 02:14:56;;;;;;;6.10;1.30;;;;;;;14.45;46.95;102058.50;5075890;28;20107;-35
2022/03/07 02:17:22;;;;;;;4.97;1.75;;;;;;;14.40;46.92;102052.78;5075557;28;20107;-38
2022/03/07 02:19:48;;;;;;;3.90;1.40;;;;;;;14.40;47.08;102050.09;5076607;28;20032;-34
2022/03/07 02:22:16;;;;;;;3.80;1.50;;;;;;;14.42;47.01;102060.72;5076193;28;20469;-32
2022/03/07 02:24:43;;;;;;;3.15;1.23;;;;;;;14.30;47.07;102027.84;5075390;28;20081;-34
2022/03/07 02:27:11;;;;;;;3.47;1.27;;;;;;;14.40;47.11;102046.56;5075199;28;20036;-35
2022/03/07 02:29:38;;;;;;;4.05;1.48;;;;;;;14.35;47.00;102041.69;5076808;28;20028;-34
2022/03/07 02:32:06;;;;;;;4.38;1.52;;;;;;;14.25;47.07;102028.41;5076829;28;20078;-36
2022/03/07 02:34:32;;;;;;;4.63;1.38;;;;;;;14.32;47.18;102039.34;5075512;28;20024;-36
2022/03/07 02:36:58;;;;;;;6.97;1.60;;;;;;;14.24;46.98;102020.47;5058252;28;20055;-35
2022/03/07 02:39:23;;;;;;;3.40;1.30;;;;;;;14.24;47.07;102015.06;5058236;28;20511;-38
2022/03/07 02:41:49;;;;;;;5.47;1.52;;;;;;;14.23;47.15;102024.22;5058704;28;20032;-37
2022/03/07 02:44:16;;;;;;;3.47;1.25;;;;;;;14.25;47.07;102028.41;5075910;28;20033;-39
2022/03/07 02:46:42;;;;;;;3.28;1.25;;;;;;;14.23;46.91;102024.22;5076154;28;20480;-37
2022/03/07 02:49:09;;;;;;;5.28;1.42;;;;;;;14.20;47.11;102021.88;5075987;28;20032;-36
2022/03/07 02:51:35;;;;;;;4.50;1.52;;;;;;;14.14;47.13;102010.75;5065178;28;20405;-37
2022/03/07 02:54:01;;;;;;;3.00;1.30;;;;;;;14.15;47.08;102008.88;5056115;28;20033;-36
2022/03/07 02:56:27;;;;;;;4.45;1.35;;;;;;;14.16;46.88;102009.75;5055879;28;20033;-35
2022/03/07 02:58:53;;;;;;;2.63;1.48;;;;;;;14.12;47.20;102012.78;5056322;28;20060;-35
2022/03/07 03:01:18;;;;;;;4.72;1.25;;;;;;;14.09;46.93;102001.50;5056054;28;20361;-37
2022/03/07 03:03:44;;;;;;;8.20;1.48;;;;;;;14.10;47.04;102001.31;5055656;28;20085;-35
2022/03/07 03:06:11;;;;;;;2.55;1.40;;;;;;;14.03;47.28;102000.34;5055475;28;20032;-32
2022/03/07 03:08:37;;;;;;;4.55;1.50;;;;;;;14.04;47.30;101990.38;5055733;28;20068;-35
2022/03/07 03:11:03;;;;;;;3.20;1.20;;;;;;;13.99;47.15;101988.22;5055055;28;20061;-33
2022/03/07 03:13:29;;;;;;;6.90;1.55;;;;;;;14.02;46.91;101997.81;5055587;28;20071;-34
2022/03/07 03:15:55;;;;;;;3.72;2.15;;;;;;;14.04;46.93;101999.34;5037744;28;20033;-39
2022/03/07 03:18:22;;;;;;;6.03;1.55;;;;;;;14.00;47.18;101989.06;5055815;28;20408;-33
2022/03/07 03:20:50;;;;;;;2.83;1.23;;;;;;;14.01;47.06;101990.75;5055423;28;20033;-38
2022/03/07 03:23:17;;;;;;;6.65;1.15;;;;;;;14.00;46.96;101986.34;5037604;28;20028;-35
2022/03/07 03:25:43;;;;;;;2.97;1.40;;;;;;;13.98;47.16;101989.22;5055555;28;20025;-35
2022/03/07 03:28:09;;;;;;;4.68;1.10;;;;;;;13.97;47.14;101987.56;5037388;28;20036;-35
2022/03/07 03:30:35;;;;;;;3.80;0.93;;;;;;;13.93;47.10;101978.16;5055324;28;20029;-32
2022/03/07 03:33:02;;;;;;;5.97;1.45;;;;;;;13.94;46.87;101979.81;5055453;28;20029;-31
2022/03/07 03:35:28;;;;;;;7.22;1.15;;;;;;;13.90;47.04;101970.41;5054927;28;20060;-33
2022/03/07 03:37:54;;;;;;;6.25;1.20;;;;;;;13.94;47.28;101979.81;5054665;28;20025;-36
2022/03/07 03:40:20;;;;;;;5.03;1.23;;;;;;;13.87;46.97;101968.03;5055416;28;20036;-33
2022/03/07 03:42:46;;;;;;;2.90;1.20;;;;;;;13.89;47.16;101964.16;5055272;28;20040;-32
2022/03/07 03:45:12;;;;;;;3.35;1.40;;;;;;;13.91;47.09;101972.91;5037073;28;20029;-36
2022/03/07 03:47:40;;;;;;;3.45;1.35;;;;;;;13.87;47.16;101968.03;5054745;28;20033;-33
2022/03/07 03:50:08;;;;;;;2.90;1.08;;;;;;;13.89;47.03;101979.50;5054946;28;20040;-34
2022/03/07 03:52:34;;;;;;;2.28;0.90;;;;;;;13.89;47.23;101985.75;5054644;28;20112;-34
2022/03/07 03:55:02;;;;;;;4.55;1.35;;;;;;;13.84;46.82;101969.25;5054449;28;20491;-33
2022/03/07 03:57:28;;;;;;;5.20;1.52;;;;;;;13.84;47.17;101974.66;5054753;28;20069;-34
2022/03/07 03:59:54;;;;;;;4.45;1.15;;;;;;;13.86;46.95;101969.91;5054457;28;20040;-32
2022/03/07 04:02:20;;;;;;;4.47;0.95;;;;;;;13.71;47.07;101953.63;5054714;28;20120;-32
2022/03/07 04:04:47;;;;;;;5.35;1.50;;;;;;;13.86;46.97;101972.59;5054640;28;20039;-38
2022/03/07 04:07:12;;;;;;;4.10;1.30;;;;;;;13.86;46.86;101963.66;5054574;28;20086;-32
2022/03/07 04:09:38;;;;;;;6.95;1.58;;;;;;;13.78;47.15;101956.47;5054481;28;20033;-33
2022/03/07 04:12:04;;;;;;;2.78;1.00;;;;;;;13.72;46.81;101949.06;5036856;28;20116;-35
2022/03/07 04:14:30;;;;;;;4.07;1.42;;;;;;;13.83;47.27;101958.63;5054543;28;20091;-34
2022/03/07 04:16:56;;;;;;;5.45;1.40;;;;;;;13.83;47.08;101966.72;5054507;28;20025;-35
2022/03/07 04:19:22;;;;;;;6.60;1.42;;;;;;;13.83;47.22;101964.84;5054543;28;20079;-33
2022/03/07 04:21:48;;;;;;;3.63;1.35;;;;;;;13.83;46.89;101969.41;5054573;28;20111;-32
2022/03/07 04:24:14;;;;;;;4.30;1.00;;;;;;;13.82;47.09;101959.63;5036314;28;20380;-34
2022/03/07 04:26:41;;;;;;;3.67;1.25;;;;;;;13.80;46.79;101956.25;5036791;28;20024;-32
2022/03/07 04:29:08;;;;;;;4.53;1.35;;;;;;;13.79;46.93;101960.84;5055105;28;20025;-32
2022/03/07 04:31:36;;;;;;;4.38;1.15;;;;;;;13.80;46.83;101961.66;5054905;28;20025;-32
2022/03/07 04:34:02;;;;;;;4.35;1.38;;;;;;;13.76;47.24;101953.06;5037329;28;20037;-36
2022/03/07 04:36:28;;;;;;;5.82;1.38;;;;;;;13.72;47.02;101946.34;5020289;28;20067;-33
2022/03/07 04:38:54;;;;;;;4.35;1.25;;;;;;;13.79;47.20;101950.03;5054221;28;20478;-32
2022/03/07 04:41:19;;;;;;;5.63;1.23;;;;;;;13.78;47.08;101959.16;5053973;28;20035;-34
2022/03/07 04:43:45;;;;;;;3.90;1.25;;;;;;;13.77;46.97;101956.63;5054117;28;20369;-34
2022/03/07 04:46:11;;;;;;;4.50;0.95;;;;;;;13.79;47.30;101960.00;5053810;28;20036;-32
2022/03/07 04:48:37;;;;;;;4.40;1.40;;;;;;;13.73;46.76;101956.97;5052232;28;20048;-32
2022/03/07 04:51:03;;;;;;;4.38;1.50;;;;;;;13.78;46.63;101963.72;5053430;28;20045;-36
2022/03/07 04:53:29;;;;;;;5.03;1.30;;;;;;;13.77;47.13;101957.47;5036014;28;20028;-34
2022/03/07 04:55:55;;;;;;;4.55;1.10;;;;;;;13.74;46.84;101958.69;5054052;28;20033;-31
2022/03/07 04:58:21;;;;;;;4.60;1.38;;;;;;;13.76;46.86;101958.47;5052359;28;20033;-34
2022/03/07 05:00:47;;;;;;;5.00;1.35;;;;;;;13.75;47.05;101952.25;5035526;28;20029;-33
2022/03/07 05:03:13;;;;;;;3.85;1.30;;;;;;;13.71;46.41;101952.78;5053504;28;20037;-35
2022/03/07 05:05:38;;;;;;;6.05;1.25;;;;;;;13.75;46.87;101964.91;5053309;28;20078;-32
2022/03/07 05:08:05;;;;;;;4.63;1.20;;;;;;;13.74;46.80;101964.09;5036034;28;20028;-36
2022/03/07 05:10:30;;;;;;;5.95;1.42;;;;;;;13.63;46.95;101933.94;5053586;28;20035;-39
2022/03/07 05:12:57;;;;;;;3.47;1.05;;;;;;;13.73;46.99;101956.97;5053273;28;20104;-34
2022/03/07 05:15:23;;;;;;;6.55;1.70;;;;;;;13.73;46.96;101953.44;5053693;28;20036;-31
2022/03/07 05:17:51;;;;;;;4.88;1.33;;;;;;;13.73;46.90;101950.75;5035934;28;20017;-34
2022/03/07 05:20:17;;;;;;;2.83;1.30;;;;;;;13.70;46.87;101946.53;5035947;28;20449;-32
2022/03/07 05:22:44;;;;;;;4.10;1.10;;;;;;;13.72;46.99;101954.47;5053919;28;20110;-32
2022/03/07 05:25:12;;;;;;;4.00;1.35;;;;;;;13.68;47.00;101940.47;5036071;28;20060;-32
2022/03/07 05:27:38;;;;;;;4.82;1.30;;;;;;;13.68;46.71;101940.47;5053111;28;20025;-32
2022/03/07 05:30:05;;;;;;;5.55;1.30;;;;;;;13.69;46.97;101950.25;5035727;28;20051;-33
2022/03/07 05:32:31;;;;;;;3.33;1.20;;;;;;;13.62;46.80;101935.78;5053317;28;20025;-33
2022/03/07 05:34:58;;;;;;;4.25;1.20;;;;;;;13.67;46.90;101946.91;5035760;28;20021;-34
2022/03/07 05:37:24;;;;;;;3.25;1.55;;;;;;;13.70;46.81;101951.94;5053339;28;20079;-34
2022/03/07 05:39:50;;;;;;;4.53;1.50;;;;;;;13.69;46.94;101952.13;5053759;28;20024;-31
2022/03/07 05:42:16;;;;;;;4.72;1.65;;;;;;;13.55;46.99;101924.84;5035382;28;20496;-34
2022/03/07 05:44:42;;;;;;;4.80;1.58;;;;;;;13.62;46.89;101932.25;5035998;28;20033;-34
2022/03/07 05:47:07;;;;;;;2.58;1.13;;;;;;;13.68;46.85;101935.06;5052862;28;20033;-35
2022/03/07 05:49:33;;;;;;;4.97;1.35;;;;;;;13.65;46.70;101932.75;5053609;28;20041;-33
2022/03/07 05:51:59;;;;;;;3.65;1.20;;;;;;;13.60;46.81;101929.72;5052810;28;20131;-35
2022/03/07 05:54:25;;;;;;;7.43;1.40;;;;;;;13.66;46.96;101936.28;5018792;28;20072;-32
2022/03/07 05:56:51;;;;;;;6.32;1.35;;;;;;;13.66;46.84;101938.97;5053100;28;20025;-36
2022/03/07 05:59:17;;;;;;;2.17;1.20;;;;;;;13.62;47.42;101934.97;5035312;28;20086;-37
2022/03/07 06:01:42;;;;;;;5.68;1.30;;;;;;;13.61;46.80;101936.78;5055636;28;20077;-33
2022/03/07 06:04:09;;;;;;;5.28;1.23;;;;;;;13.63;47.07;101945.59;5038937;28;20057;-34
2022/03/07 06:06:35;;;;;;;3.88;1.30;;;;;;;13.63;47.22;101940.19;5056846;28;20094;-38
2022/03/07 06:09:01;;;;;;;3.50;1.30;;;;;;;13.57;47.04;101930.06;5057264;28;20025;-35
2022/03/07 06:11:27;;;;;;;3.60;1.10;;;;;;;13.62;47.07;101935.78;5057461;28;20060;-39
2022/03/07 06:13:53;;;;;;;3.60;1.40;;;;;;;13.61;47.12;101933.25;5056632;28;20127;-33
2022/03/07 06:16:19;;;;;;;3.53;1.30;;;;;;;13.55;46.77;101924.03;5038862;28;20111;-39
2022/03/07 06:18:44;;;;;;;4.82;1.42;;;;;;;13.59;46.81;101935.31;5039013;28;20029;-40
2022/03/07 06:21:10;;;;;;;5.35;1.40;;;;;;;13.62;47.13;101937.66;5057383;28;20025;-38
2022/03/07 06:23:37;;;;;;;5.03;1.65;;;;;;;13.56;47.04;101933.81;5057317;28;20346;-37
2022/03/07 06:26:07;;;;;;;4.78;1.50;;;;;;;13.60;46.86;101927.03;5056285;28;20025;-38
2022/03/07 06:28:33;;;;;;;6.30;1.23;;;;;;;13.57;47.17;101927.38;5057086;28;20036;-39
2022/03/07 06:30:59;;;;;;;2.80;1.10;;;;;;;13.58;47.05;101920.97;5056736;28;20373;-37
2022/03/07 06:33:25;;;;;;;2.28;0.90;;;;;;;13.57;47.04;101926.53;5056525;28;20049;-36
2022/03/07 06:35:50;;;;;;;2.90;1.00;;;;;;;13.57;47.08;101923.84;5038753;28;20111;-34
2022/03/07 06:38:17;;;;;;;4.82;1.33;;;;;;;13.55;47.04;101916.75;5056489;28;20025;-34
2022/03/07 06:40:43;;;;;;;3.10;1.00;;;;;;;13.52;46.93;101913.56;5055127;28;20044;-34
2022/03/07 06:43:09;;;;;;;5.85;1.50;;;;;;;13.45;46.90;101905.34;5056260;28;20033;-33
2022/03/07 06:45:35;;;;;;;3.88;1.25;;;;;;;13.49;46.88;101912.06;5056198;28;20037;-34
2022/03/07 06:48:01;;;;;;;3.75;1.33;;;;;;;13.54;47.06;101919.66;5037988;28;20033;-34
2022/03/07 06:50:27;;;;;;;3.00;1.15;;;;;;;13.53;46.84;101921.50;5055529;28;20087;-33
2022/03/07 06:52:53;;;;;;;6.47;1.70;;;;;;;13.49;46.64;101913.94;5056184;28;20078;-37
2022/03/07 06:55:19;;;;;;;4.13;1.65;;;;;;;13.48;46.67;101917.66;5038413;28;20108;-35
2022/03/07 06:57:45;;;;;;;5.00;1.40;;;;;;;13.52;46.88;101922.53;5038038;28;20064;-35
2022/03/07 07:00:13;;;;;;;4.57;1.30;;;;;;;13.53;47.05;101926.06;5037956;28;20358;-33
2022/03/07 07:02:39;;;;;;;5.43;1.25;;;;;;;13.53;46.99;101926.06;5021944;28;20108;-34
2022/03/07 07:05:07;;;;;;;11.77;1.42;;;;;;;13.52;46.96;101919.81;5055463;28;20515;-37
2022/03/07 07:07:33;;;;;;;6.00;1.23;;;;;;;13.53;46.87;101928.75;5055579;28;20033;-34
2022/03/07 07:09:59;;;;;;;4.03;1.25;;;;;;;13.53;47.03;101924.19;5037830;28;20079;-34
2022/03/07 07:12:25;;;;;;;5.43;1.10;;;;;;;13.60;46.83;101924.34;5054850;28;20037;-36
2022/03/07 07:14:50;;;;;;;3.63;0.95;;;;;;;13.63;46.73;101918.59;5055306;28;20043;-35
2022/03/07 07:17:17;;;;;;;2.97;1.25;;;;;;;13.73;46.77;101923.75;5055173;28;20422;-32
2022/03/07 07:19:43;;;;;;;4.38;0.90;;;;;;;13.73;46.92;101910.25;5055351;28;20055;-33
2022/03/07 07:22:09;;;;;;;2.67;1.08;;;;;;;13.87;46.72;101927.53;5055473;28;20033;-34
2022/03/07 07:24:35;;;;;;;6.68;1.35;;;;;;;13.92;46.61;101923.28;5055271;28;20074;-35
2022/03/07 07:27:00;;;;;;;2.80;0.93;;;;;;;13.99;46.54;101919.88;5037324;28;20492;-32
2022/03/07 07:29:27;;;;;;;3.92;1.33;;;;;;;14.05;46.03;101925.38;5054848;28;20116;-33
2022/03/07 07:31:53;;;;;;;2.78;1.00;;;;;;;14.12;46.58;101922.78;5056560;28;20055;-35
2022/03/07 07:34:20;;;;;;;2.10;0.88;;;;;;;14.18;46.25;101926.63;5055656;28;20482;-32
2022/03/07 07:36:46;;;;;;;2.42;0.90;;;;;;;14.23;46.33;101918.84;5037493;28;20037;-33
2022/03/07 07:39:12;;;;;;;3.40;0.90;;;;;;;14.26;46.18;101919.31;5020878;28;20550;-33
2022/03/07 07:41:37;;;;;;;3.55;1.00;;;;;;;14.36;46.06;101918.19;5037066;28;20037;-36
2022/03/07 07:44:04;;;;;;;6.63;1.33;;;;;;;14.38;46.04;101910.75;5055091;28;20393;-37
2022/03/07 07:46:30;;;;;;;2.45;1.00;;;;;;;14.47;45.96;101920.47;5055462;28;20025;-37
2022/03/07 07:48:56;;;;;;;2.88;1.15;;;;;;;14.50;45.96;101914.69;5055302;28;20392;-36
2022/03/07 07:51:22;;;;;;;2.00;1.13;;;;;;;14.60;46.03;101914.44;5054946;28;20041;-36
2022/03/07 07:53:48;;;;;;;3.63;1.30;;;;;;;14.59;45.69;101908.19;5055268;28;20473;-33
2022/03/07 07:56:14;;;;;;;2.17;1.13;;;;;;;14.71;45.60;101912.13;5054669;28;20051;-32
2022/03/07 07:58:40;;;;;;;6.78;1.35;;;;;;;14.70;45.27;101896.09;5036991;28;20072;-32
2022/03/07 08:01:06;;;;;;;2.42;0.90;;;;;;;14.67;45.06;101885.63;5054761;28;20036;-33
2022/03/07 08:03:33;;;;;;;2.53;1.02;;;;;;;14.83;44.88;101914.38;5054575;28;20021;-32
2022/03/07 08:05:59;;;;;;;1.35;0.70;;;;;;;14.82;44.96;101902.72;5054385;28;20040;-35
2022/03/07 08:08:25;;;;;;;3.53;1.10;;;;;;;14.81;44.83;101898.34;5036988;28;20052;-35
2022/03/07 08:10:51;;;;;;;2.67;1.10;;;;;;;14.87;44.77;101910.28;5054547;28;20030;-33
2022/03/07 08:13:17;;;;;;;5.32;1.13;;;;;;;14.81;44.68;101908.31;5054158;28;20029;-33
2022/03/07 08:15:43;;;;;;;2.13;1.10;;;;;;;14.91;44.62;101911.56;5036816;28;20036;-37
2022/03/07 08:18:08;;;;;;;3.00;1.13;;;;;;;14.94;44.38;101913.09;5054070;28;20052;-39
2022/03/07 08:20:35;;;;;;;2.72;1.30;;;;;;;14.95;44.48;101909.34;5054102;28;20063;-33
2022/03/07 08:23:01;;;;;;;12.48;1.52;;;;;;;14.95;44.98;101906.63;5036107;28;20040;-32
2022/03/07 08:25:26;;;;;;;4.13;1.30;;;;;;;14.96;44.97;101913.72;5053382;28;20428;-35
2022/03/07 08:27:53;;;;;;;8.00;1.65;;;;;;;14.93;45.09;101901.41;5054143;28;20044;-31
2022/03/07 08:30:23;;;;;;;6.40;1.27;;;;;;;14.92;45.23;101907.03;5054391;28;20029;-32
2022/03/07 08:32:49;;;;;;;4.72;1.42;;;;;;;14.86;45.56;101914.84;5054389;28;20029;-32
2022/03/07 08:35:15;;;;;;;12.30;1.92;;;;;;;14.74;45.65;101913.63;5036409;28;20031;-36
2022/03/07 08:37:44;;;;;;;1.90;1.00;;;;;;;14.74;45.96;101915.50;5036170;28;20112;-33
2022/03/07 08:40:10;;;;;;;7.47;1.23;;;;;;;14.61;46.25;101908.03;5053962;28;20033;-33
2022/03/07 08:42:36;;;;;;;3.97;1.25;;;;;;;14.62;46.31;101918.66;5020112;28;20048;-34
2022/03/07 08:45:03;;;;;;;5.28;1.50;;;;;;;14.55;46.31;101917.69;5036187;28;20040;-37
2022/03/07 08:47:29;;;;;;;20.98;2.05;;;;;;;14.57;46.26;101925.63;5036198;28;20029;-33
2022/03/07 08:49:56;;;;;;;12.38;1.55;;;;;;;14.52;46.24;101924.31;5052535;28;20062;-35
2022/03/07 08:52:21;;;;;;;6.03;1.52;;;;;;;14.50;46.71;101920.94;5065885;28;20130;-33
2022/03/07 08:54:47;;;;;;;6.38;1.77;;;;;;;14.51;46.43;101917.22;5073595;28;20083;-36
2022/03/07 08:57:14;;;;;;;5.28;1.20;;;;;;;14.50;46.54;101914.69;5073818;28;20024;-32
2022/03/07 08:59:40;;;;;;;6.18;1.33;;;;;;;14.44;46.54;101908.16;5072567;28;20032;-35
2022/03/07 09:02:07;;;;;;;4.78;1.42;;;;;;;14.56;46.48;101910.41;5073663;28;20033;-32
2022/03/07 09:04:33;;;;;;;2.33;1.10;;;;;;;14.61;46.57;101902.63;5073863;28;20103;-34
2022/03/07 09:06:58;;;;;;;5.82;1.70;;;;;;;14.68;46.20;101906.25;5073910;28;20035;-34
2022/03/07 09:09:26;;;;;;;4.85;1.52;;;;;;;14.72;46.13;101907.56;5073531;28;20044;-36
2022/03/07 09:11:51;;;;;;;3.38;1.48;;;;;;;14.79;45.84;101905.78;5073759;28;20107;-32
2022/03/07 09:14:17;;;;;;;4.18;1.05;;;;;;;14.84;45.68;101894.41;5073851;28;20038;-33
2022/03/07 09:16:43;;;;;;;3.00;0.73;;;;;;;14.84;45.97;101886.28;5073520;28;20508;-33
2022/03/07 09:19:09;;;;;;;2.15;1.08;;;;;;;14.94;45.67;101896.84;5073705;28;20044;-36
2022/03/07 09:21:35;;;;;;;3.45;1.40;;;;;;;14.96;45.47;101892.09;5073605;28;20020;-35
2022/03/07 09:24:01;;;;;;;4.40;1.35;;;;;;;15.09;45.51;101893.09;5055569;28;20032;-32
2022/03/07 09:26:27;;;;;;;4.10;1.25;;;;;;;15.15;45.42;101896.91;5073709;28;20043;-33
2022/03/07 09:28:52;;;;;;;4.63;1.00;;;;;;;15.25;45.61;101892.06;5073444;28;20373;-36
2022/03/07 09:31:19;;;;;;;2.15;1.20;;;;;;;15.20;45.26;101878.25;5073350;28;20345;-35
2022/03/07 09:33:44;;;;;;;2.58;0.90;;;;;;;15.24;45.37;101881.41;5072274;28;20029;-32
2022/03/07 09:36:10;;;;;;;1.80;0.90;;;;;;;15.09;45.51;101873.31;5075385;28;20441;-33
2022/03/07 09:38:36;;;;;;;5.18;1.23;;;;;;;15.11;45.25;101882.09;5077303;28;20028;-32
2022/03/07 09:41:03;;;;;;;4.22;0.90;;;;;;;15.02;45.74;101875.09;5076076;28;20074;-33
2022/03/07 09:43:30;;;;;;;4.57;1.45;;;;;;;14.94;45.82;101873.34;5077429;28;20029;-33
2022/03/07 09:45:56;;;;;;;3.35;1.00;;;;;;;14.84;46.02;101873.63;5077432;28;20024;-35
2022/03/07 09:48:23;;;;;;;4.07;1.42;;;;;;;14.87;45.84;101878.66;5077112;28;20150;-37
2022/03/07 09:50:49;;;;;;;3.60;0.98;;;;;;;14.84;46.26;101875.47;5073025;28;20057;-32
2022/03/07 09:53:17;;;;;;;4.13;0.80;;;;;;;14.83;45.96;101868.41;5057224;28;20462;-34
2022/03/07 09:55:44;;;;;;;1.00;0.80;;;;;;;15.39;44.87;101862.44;5039445;28;20028;-33
2022/03/07 09:58:11;;;;;;;2.58;0.85;;;;;;;16.18;43.68;101861.56;5039297;28;20032;-32
2022/03/07 10:00:41;;;;;;;3.45;1.00;;;;;;;17.12;42.66;101861.06;5039212;28;20036;-32
2022/03/07 10:03:10;;;;;;;4.65;1.00;;;;;;;17.06;42.79;101861.91;5040271;28;20025;-33
2022/03/07 10:05:38;;;;;;;3.95;1.08;;;;;;;16.70;43.09;101854.81;5039085;28;20543;-34
2022/03/07 10:08:06;;;;;;;3.97;1.20;;;;;;;16.44;43.62;101850.06;5056435;28;20044;-34
2022/03/07 10:10:34;;;;;;;3.40;1.00;;;;;;;16.30;43.87;101857.25;5056752;28;20111;-33
2022/03/07 10:13:09;;;;;;;4.97;1.15;;;;;;;16.05;44.12;101843.31;5056883;28;20025;-32
2022/03/07 10:15:37;;;;;;;2.15;0.93;;;;;;;15.94;44.19;101846.56;5038735;28;20040;-32
2022/03/07 10:18:03;;;;;;;1.58;0.75;;;;;;;15.87;44.01;101858.16;5056737;28;20017;-36
2022/03/07 10:20:29;;;;;;;2.58;0.90;;;;;;;15.88;43.52;101848.19;5038525;28;20029;-32
2022/03/07 10:22:59;;;;;;;1.77;0.85;;;;;;;16.02;43.27;101847.22;5056788;28;20127;-32
2022/03/07 10:25:28;;;;;;;4.18;1.20;;;;;;;15.91;43.44;101845.06;5022350;28;20032;-33
2022/03/07 10:27:54;;;;;;;1.10;0.70;;;;;;;15.80;43.71;101829.34;5039017;28;20095;-32
2022/03/07 10:30:24;;;;;;;1.20;0.75;;;;;;;15.89;43.57;101835.47;5055922;28;20052;-34
2022/03/07 10:32:53;;;;;;;4.75;0.90;;;;;;;16.25;43.12;101832.59;5055763;28;20040;-32
2022/03/07 10:35:22;;;;;;;2.03;0.82;;;;;;;16.43;42.80;101823.97;5056047;28;20103;-34
2022/03/07 10:37:48;;;;;;;2.90;1.10;;;;;;;16.41;42.89;101821.44;5056708;28;20055;-38
2022/03/07 10:40:20;;;;;;;3.15;1.00;;;;;;;16.28;43.04;101821.38;5056447;28;20037;-33
2022/03/07 10:42:47;;;;;;;1.90;0.73;;;;;;;16.13;43.57;101817.94;5055711;28;20044;-32
2022/03/07 10:45:13;;;;;;;1.90;1.00;;;;;;;16.00;43.10;101821.38;5056215;28;20025;-31
2022/03/07 10:47:39;;;;;;;3.30;1.00;;;;;;;15.96;43.31;101829.06;5037277;28;20029;-32
2022/03/07 10:50:06;;;;;;;1.40;0.82;;;;;;;16.11;43.28;101814.59;5056266;28;20399;-31
2022/03/07 10:52:37;;;;;;;1.23;0.88;;;;;;;16.27;42.82;101819.72;5071095;28;20040;-33
2022/03/07 10:55:05;;;;;;;4.22;1.17;;;;;;;16.14;42.35;101808.75;5075744;28;20067;-31
2022/03/07 10:57:39;;;;;;;2.22;1.20;;;;;;;16.14;42.56;101819.59;5075793;28;20029;-31
2022/03/07 11:00:09;;;;;;;2.45;0.90;;;;;;;16.11;42.92;101822.72;5074588;28;20448;-33
2022/03/07 11:02:40;;;;;;;4.60;0.90;;;;;;;16.03;41.83;101826.41;5074356;28;20035;-31
2022/03/07 11:05:07;;;;;;;3.47;1.13;;;;;;;16.08;41.93;101815.81;5074152;28;20036;-33
2022/03/07 11:07:37;;;;;;;2.03;0.98;;;;;;;15.99;42.39;101814.28;5075283;28;20119;-31
2022/03/07 11:10:04;;;;;;;2.05;0.90;;;;;;;15.86;42.26;101812.28;5075710;28;20071;-35
2022/03/07 11:12:30;;;;;;;2.50;0.80;;;;;;;15.68;42.64;101794.63;5074120;28;20077;-34
2022/03/07 11:14:58;;;;;;;2.80;0.80;;;;;;;15.62;42.54;101795.41;5074147;28;20044;-35
2022/03/07 11:17:26;;;;;;;2.25;0.85;;;;;;;15.70;42.69;101801.72;5075104;28;20033;-33
2022/03/07 11:19:55;;;;;;;1.77;0.90;;;;;;;15.64;42.24;101790.63;5074711;28;20090;-34